KLEB/LEB METAR and TAF weather

Enter ICAO airport designator
Station Type Date Time Source
KLEB METAR 2019/02/21 11:34 UTC NOAA

KLEB 211134Z 00000KT 5SM BR OVC010 M04/M07 A2987 RMK AO2 I1001 T10441067


Station Type Date Time Source
KLEB Decoded METAR 2019/02/21 11:34 UTC NOAA

LEBANON MUNICIPAL AIRPORT, NH, United States (KLEB) 43-38N 072-18W 171M
Feb 21, 2019 - 06:34 AM EST / 2019.02.21 1134 UTC
Wind: Calm:0
Visibility: 5 mile(s):0
Sky conditions: overcast
Weather: mist
Temperature: 24.1 F (-4.4 C)
Dew Point: 19.9 F (-6.7 C)
Relative Humidity: 83%
Pressure (altimeter): 29.87 in. Hg (1011 hPa)
ob: KLEB 211134Z 00000KT 5SM BR OVC010 M04/M07 A2987 RMK AO2 I1001 T10441067
cycle: 11

Station Type Date Time Source
KLEB TAF 2019/02/21 12:30 UTC NOAA

TAF KLEB 211128Z 2112/2212 VRB03KT 4SM BR BKN008
FM211400 22004KT P6SM SCT015 BKN030
FM211700 28012G20KT P6SM BKN050
FM220000 28007KT P6SM FEW050


Example: see airport list